Thatcher, Colorado
Current Conditions -  °F | °C
As of 4:54 AM on Thursday 29 Jan 2015 (Local Time) from KTAD Reporting Station
Overcast Overcast  
Wind Chill: 32°   Ceiling: 5000
Heat Index: 37°   Visibility: 10mi
Dew Point: 29°   Wind: 6mph
Humidity: 73%   Direction: 40°NE
Pressure: 30.43"   Gusts: NA
Location:  37.5307°N, 104.063°W
Report Text: KTAD 291154Z AUTO 04005KT 10SM FEW041 OVC050 03/M02 A3043 RMK AO2 SLP282 7//// T00281017 10050 21011 51015
Loading
Personal Weather Stations






























Interactive Weather Map New forecast layout! Learn more

10-Day Weather Forecast

Advertisements
Track Severe Weather on mobile